METAR Data
IDs: Format: Raw Decoded Include TAF

Data at: 1501 UTC 27 Nov 2021

EDTY 271450Z 26007KT 230V290 1500 SN BR OVC003 00/00 Q0993